sensor_id;sensor_type;location;lat;lon;timestamp;P1;durP1;ratioP1;P2;durP2;ratioP2
8399;SDS011;4237;47.030;15.396;2022-09-25T00:01:09;12.73;;;9.80;;
8399;SDS011;4237;47.030;15.396;2022-09-25T00:03:38;12.53;;;10.47;;
8399;SDS011;4237;47.030;15.396;2022-09-25T00:06:07;14.17;;;10.57;;
8399;SDS011;4237;47.030;15.396;2022-09-25T00:08:36;11.97;;;10.77;;
8399;SDS011;4237;47.030;15.396;2022-09-25T00:11:07;13.57;;;10.83;;
8399;SDS011;4237;47.030;15.396;2022-09-25T00:13:36;13.30;;;10.67;;
8399;SDS011;4237;47.030;15.396;2022-09-25T00:16:05;13.00;;;10.53;;
8399;SDS011;4237;47.030;15.396;2022-09-25T00:18:34;12.23;;;10.57;;
8399;SDS011;4237;47.030;15.396;2022-09-25T00:21:20;12.37;;;10.63;;
8399;SDS011;4237;47.030;15.396;2022-09-25T00:23:48;11.63;;;10.43;;
8399;SDS011;4237;47.030;15.396;2022-09-25T00:26:16;14.93;;;10.50;;
8399;SDS011;4237;47.030;15.396;2022-09-25T00:28:45;11.60;;;10.40;;
8399;SDS011;4237;47.030;15.396;2022-09-25T00:31:17;12.60;;;10.77;;
8399;SDS011;4237;47.030;15.396;2022-09-25T00:33:42;14.60;;;9.93;;
8399;SDS011;4237;47.030;15.396;2022-09-25T00:36:11;12.97;;;10.57;;
8399;SDS011;4237;47.030;15.396;2022-09-25T00:38:39;13.10;;;10.97;;
8399;SDS011;4237;47.030;15.396;2022-09-25T00:41:07;16.37;;;10.27;;
8399;SDS011;4237;47.030;15.396;2022-09-25T00:52:16;13.10;;;10.13;;
8399;SDS011;4237;47.030;15.396;2022-09-25T00:56:49;10.33;;;8.97;;
8399;SDS011;4237;47.030;15.396;2022-09-25T00:59:19;11.03;;;9.83;;
8399;SDS011;4237;47.030;15.396;2022-09-25T01:01:48;10.53;;;9.37;;
8399;SDS011;4237;47.030;15.396;2022-09-25T01:04:16;11.03;;;9.83;;
8399;SDS011;4237;47.030;15.396;2022-09-25T01:06:44;12.40;;;9.70;;
8399;SDS011;4237;47.030;15.396;2022-09-25T01:09:12;10.13;;;9.13;;
8399;SDS011;4237;47.030;15.396;2022-09-25T01:11:41;12.77;;;9.20;;
8399;SDS011;4237;47.030;15.396;2022-09-25T01:14:10;10.03;;;9.03;;
8399;SDS011;4237;47.030;15.396;2022-09-25T01:16:43;11.77;;;8.50;;
8399;SDS011;4237;47.030;15.396;2022-09-25T01:21:52;9.10;;;8.20;;
8399;SDS011;4237;47.030;15.396;2022-09-25T01:24:33;11.30;;;8.43;;
8399;SDS011;4237;47.030;15.396;2022-09-25T01:29:55;9.90;;;8.83;;
8399;SDS011;4237;47.030;15.396;2022-09-25T01:34:58;9.57;;;8.60;;
8399;SDS011;4237;47.030;15.396;2022-09-25T01:37:25;10.00;;;8.97;;
8399;SDS011;4237;47.030;15.396;2022-09-25T01:40:08;12.17;;;8.90;;
8399;SDS011;4237;47.030;15.396;2022-09-25T01:42:26;11.63;;;9.50;;
8399;SDS011;4237;47.030;15.396;2022-09-25T01:44:56;10.10;;;9.13;;
8399;SDS011;4237;47.030;15.396;2022-09-25T01:47:26;11.53;;;8.80;;
8399;SDS011;4237;47.030;15.396;2022-09-25T01:49:59;9.83;;;8.70;;
8399;SDS011;4237;47.030;15.396;2022-09-25T01:52:36;10.63;;;8.93;;
8399;SDS011;4237;47.030;15.396;2022-09-25T01:55:15;9.43;;;8.03;;
8399;SDS011;4237;47.030;15.396;2022-09-25T01:57:41;12.27;;;8.60;;
8399;SDS011;4237;47.030;15.396;2022-09-25T02:00:12;10.13;;;8.40;;
8399;SDS011;4237;47.030;15.396;2022-09-25T02:02:46;9.87;;;8.17;;
8399;SDS011;4237;47.030;15.396;2022-09-25T02:05:30;10.00;;;8.83;;
8399;SDS011;4237;47.030;15.396;2022-09-25T02:08:06;10.87;;;7.93;;
8399;SDS011;4237;47.030;15.396;2022-09-25T02:10:35;10.10;;;8.33;;
8399;SDS011;4237;47.030;15.396;2022-09-25T02:13:08;9.43;;;8.50;;
8399;SDS011;4237;47.030;15.396;2022-09-25T02:15:38;10.50;;;8.03;;
8399;SDS011;4237;47.030;15.396;2022-09-25T02:18:10;9.97;;;8.30;;
8399;SDS011;4237;47.030;15.396;2022-09-25T02:20:59;12.13;;;8.13;;
8399;SDS011;4237;47.030;15.396;2022-09-25T02:23:35;9.33;;;8.07;;
8399;SDS011;4237;47.030;15.396;2022-09-25T02:26:07;10.33;;;8.03;;
8399;SDS011;4237;47.030;15.396;2022-09-25T02:28:35;9.47;;;7.70;;
8399;SDS011;4237;47.030;15.396;2022-09-25T02:31:05;9.20;;;7.87;;
8399;SDS011;4237;47.030;15.396;2022-09-25T02:33:33;9.07;;;8.17;;
8399;SDS011;4237;47.030;15.396;2022-09-25T02:36:02;11.07;;;8.50;;
8399;SDS011;4237;47.030;15.396;2022-09-25T02:38:31;9.47;;;7.87;;
8399;SDS011;4237;47.030;15.396;2022-09-25T02:41:02;9.37;;;8.00;;
8399;SDS011;4237;47.030;15.396;2022-09-25T02:48:35;10.23;;;9.13;;
8399;SDS011;4237;47.030;15.396;2022-09-25T02:51:08;11.37;;;8.77;;
8399;SDS011;4237;47.030;15.396;2022-09-25T02:53:47;10.53;;;8.67;;
8399;SDS011;4237;47.030;15.396;2022-09-25T02:56:12;10.43;;;8.80;;
8399;SDS011;4237;47.030;15.396;2022-09-25T02:58:45;9.93;;;8.73;;
8399;SDS011;4237;47.030;15.396;2022-09-25T03:01:15;9.43;;;8.43;;
8399;SDS011;4237;47.030;15.396;2022-09-25T03:03:44;9.93;;;8.50;;
8399;SDS011;4237;47.030;15.396;2022-09-25T03:06:13;10.37;;;8.47;;
8399;SDS011;4237;47.030;15.396;2022-09-25T03:08:45;9.70;;;8.60;;
8399;SDS011;4237;47.030;15.396;2022-09-25T03:11:16;9.53;;;8.53;;
8399;SDS011;4237;47.030;15.396;2022-09-25T03:13:54;10.93;;;8.87;;
8399;SDS011;4237;47.030;15.396;2022-09-25T03:16:22;9.40;;;8.50;;
8399;SDS011;4237;47.030;15.396;2022-09-25T03:18:46;10.17;;;8.47;;
8399;SDS011;4237;47.030;15.396;2022-09-25T03:21:14;9.17;;;8.27;;
8399;SDS011;4237;47.030;15.396;2022-09-25T03:23:43;9.47;;;8.53;;
8399;SDS011;4237;47.030;15.396;2022-09-25T03:26:11;11.60;;;8.67;;
8399;SDS011;4237;47.030;15.396;2022-09-25T03:28:39;9.57;;;8.57;;
8399;SDS011;4237;47.030;15.396;2022-09-25T03:31:10;10.80;;;9.00;;
8399;SDS011;4237;47.030;15.396;2022-09-25T03:33:40;10.57;;;9.23;;
8399;SDS011;4237;47.030;15.396;2022-09-25T03:38:38;10.90;;;9.30;;
8399;SDS011;4237;47.030;15.396;2022-09-25T03:41:10;11.10;;;9.90;;
8399;SDS011;4237;47.030;15.396;2022-09-25T03:43:38;10.97;;;9.90;;
8399;SDS011;4237;47.030;15.396;2022-09-25T03:46:08;11.43;;;10.17;;
8399;SDS011;4237;47.030;15.396;2022-09-25T03:48:37;15.90;;;9.93;;
8399;SDS011;4237;47.030;15.396;2022-09-25T03:51:06;10.90;;;9.80;;
8399;SDS011;4237;47.030;15.396;2022-09-25T03:53:35;12.03;;;10.70;;
8399;SDS011;4237;47.030;15.396;2022-09-25T03:56:07;10.80;;;9.67;;
8399;SDS011;4237;47.030;15.396;2022-09-25T03:58:34;12.80;;;9.37;;
8399;SDS011;4237;47.030;15.396;2022-09-25T04:01:03;11.83;;;9.27;;
8399;SDS011;4237;47.030;15.396;2022-09-25T04:03:32;14.73;;;10.10;;
8399;SDS011;4237;47.030;15.396;2022-09-25T04:06:01;11.47;;;9.50;;
8399;SDS011;4237;47.030;15.396;2022-09-25T04:08:33;10.10;;;9.03;;
8399;SDS011;4237;47.030;15.396;2022-09-25T04:11:02;11.80;;;9.27;;
8399;SDS011;4237;47.030;15.396;2022-09-25T04:13:32;11.53;;;9.27;;
8399;SDS011;4237;47.030;15.396;2022-09-25T04:16:01;12.03;;;9.33;;
8399;SDS011;4237;47.030;15.396;2022-09-25T04:18:30;11.67;;;10.00;;
8399;SDS011;4237;47.030;15.396;2022-09-25T04:20:58;10.00;;;9.00;;
8399;SDS011;4237;47.030;15.396;2022-09-25T04:23:27;12.00;;;9.87;;
8399;SDS011;4237;47.030;15.396;2022-09-25T04:25:55;10.77;;;9.33;;
8399;SDS011;4237;47.030;15.396;2022-09-25T04:28:24;10.20;;;9.20;;
8399;SDS011;4237;47.030;15.396;2022-09-25T04:30:52;12.60;;;9.50;;
8399;SDS011;4237;47.030;15.396;2022-09-25T04:33:20;13.73;;;10.50;;
8399;SDS011;4237;47.030;15.396;2022-09-25T04:36:07;13.57;;;9.83;;
8399;SDS011;4237;47.030;15.396;2022-09-25T04:38:35;10.43;;;9.33;;
8399;SDS011;4237;47.030;15.396;2022-09-25T04:41:03;11.57;;;9.23;;
8399;SDS011;4237;47.030;15.396;2022-09-25T04:43:32;10.27;;;8.87;;
8399;SDS011;4237;47.030;15.396;2022-09-25T04:46:04;10.63;;;9.53;;
8399;SDS011;4237;47.030;15.396;2022-09-25T04:48:33;10.53;;;9.43;;
8399;SDS011;4237;47.030;15.396;2022-09-25T04:51:02;10.73;;;9.20;;
8399;SDS011;4237;47.030;15.396;2022-09-25T04:53:31;10.73;;;9.63;;
8399;SDS011;4237;47.030;15.396;2022-09-25T04:56:03;10.93;;;9.40;;
8399;SDS011;4237;47.030;15.396;2022-09-25T04:58:34;10.60;;;9.60;;
8399;SDS011;4237;47.030;15.396;2022-09-25T05:01:07;11.17;;;9.40;;
8399;SDS011;4237;47.030;15.396;2022-09-25T05:03:32;9.93;;;8.97;;
8399;SDS011;4237;47.030;15.396;2022-09-25T05:06:00;10.03;;;8.90;;
8399;SDS011;4237;47.030;15.396;2022-09-25T05:08:28;12.87;;;9.60;;
8399;SDS011;4237;47.030;15.396;2022-09-25T05:10:56;11.40;;;9.00;;
8399;SDS011;4237;47.030;15.396;2022-09-25T05:13:24;12.73;;;9.33;;
8399;SDS011;4237;47.030;15.396;2022-09-25T05:15:54;9.30;;;8.47;;
8399;SDS011;4237;47.030;15.396;2022-09-25T05:18:23;12.60;;;9.23;;
8399;SDS011;4237;47.030;15.396;2022-09-25T05:20:52;12.10;;;9.20;;
8399;SDS011;4237;47.030;15.396;2022-09-25T05:23:21;12.33;;;10.53;;
8399;SDS011;4237;47.030;15.396;2022-09-25T05:25:50;12.23;;;10.20;;
8399;SDS011;4237;47.030;15.396;2022-09-25T05:28:20;10.67;;;9.40;;
8399;SDS011;4237;47.030;15.396;2022-09-25T05:30:49;10.87;;;9.90;;
8399;SDS011;4237;47.030;15.396;2022-09-25T05:33:19;9.77;;;8.87;;
8399;SDS011;4237;47.030;15.396;2022-09-25T05:35:47;9.87;;;8.97;;
8399;SDS011;4237;47.030;15.396;2022-09-25T05:38:16;10.50;;;9.20;;
8399;SDS011;4237;47.030;15.396;2022-09-25T05:40:44;9.93;;;8.90;;
8399;SDS011;4237;47.030;15.396;2022-09-25T05:43:13;10.60;;;9.43;;
8399;SDS011;4237;47.030;15.396;2022-09-25T05:45:42;12.40;;;10.00;;
8399;SDS011;4237;47.030;15.396;2022-09-25T05:48:10;9.97;;;8.83;;
8399;SDS011;4237;47.030;15.396;2022-09-25T05:50:39;10.60;;;9.33;;
8399;SDS011;4237;47.030;15.396;2022-09-25T05:53:08;10.60;;;9.50;;
8399;SDS011;4237;47.030;15.396;2022-09-25T05:55:36;9.83;;;8.90;;
8399;SDS011;4237;47.030;15.396;2022-09-25T05:58:04;9.00;;;8.20;;
8399;SDS011;4237;47.030;15.396;2022-09-25T06:00:32;9.90;;;8.90;;
8399;SDS011;4237;47.030;15.396;2022-09-25T06:03:01;10.27;;;8.50;;
8399;SDS011;4237;47.030;15.396;2022-09-25T06:05:29;9.47;;;8.47;;
8399;SDS011;4237;47.030;15.396;2022-09-25T06:07:57;10.50;;;8.93;;
8399;SDS011;4237;47.030;15.396;2022-09-25T06:10:25;15.90;;;9.23;;
8399;SDS011;4237;47.030;15.396;2022-09-25T06:12:57;10.33;;;9.10;;
8399;SDS011;4237;47.030;15.396;2022-09-25T06:15:27;10.57;;;9.47;;
8399;SDS011;4237;47.030;15.396;2022-09-25T06:17:55;11.47;;;9.33;;
8399;SDS011;4237;47.030;15.396;2022-09-25T06:20:23;10.40;;;9.13;;
8399;SDS011;4237;47.030;15.396;2022-09-25T06:22:52;8.93;;;8.03;;
8399;SDS011;4237;47.030;15.396;2022-09-25T06:25:21;8.50;;;7.60;;
8399;SDS011;4237;47.030;15.396;2022-09-25T06:27:52;9.57;;;8.57;;
8399;SDS011;4237;47.030;15.396;2022-09-25T06:30:21;11.13;;;8.17;;
8399;SDS011;4237;47.030;15.396;2022-09-25T06:32:55;9.77;;;8.43;;
8399;SDS011;4237;47.030;15.396;2022-09-25T06:35:19;9.70;;;8.70;;
8399;SDS011;4237;47.030;15.396;2022-09-25T06:37:47;10.93;;;8.97;;
8399;SDS011;4237;47.030;15.396;2022-09-25T06:40:16;11.07;;;9.23;;
8399;SDS011;4237;47.030;15.396;2022-09-25T06:42:44;10.43;;;9.33;;
8399;SDS011;4237;47.030;15.396;2022-09-25T06:45:12;10.57;;;9.47;;
8399;SDS011;4237;47.030;15.396;2022-09-25T06:47:40;15.13;;;11.23;;
8399;SDS011;4237;47.030;15.396;2022-09-25T06:50:09;13.43;;;10.20;;
8399;SDS011;4237;47.030;15.396;2022-09-25T06:52:41;14.03;;;10.10;;
8399;SDS011;4237;47.030;15.396;2022-09-25T06:55:10;11.47;;;8.77;;
8399;SDS011;4237;47.030;15.396;2022-09-25T06:57:38;12.60;;;9.67;;
8399;SDS011;4237;47.030;15.396;2022-09-25T07:00:07;11.97;;;9.37;;
8399;SDS011;4237;47.030;15.396;2022-09-25T07:02:35;11.33;;;9.53;;
8399;SDS011;4237;47.030;15.396;2022-09-25T07:05:22;12.73;;;9.77;;
8399;SDS011;4237;47.030;15.396;2022-09-25T07:07:50;13.13;;;9.80;;
8399;SDS011;4237;47.030;15.396;2022-09-25T07:10:18;13.33;;;9.50;;
8399;SDS011;4237;47.030;15.396;2022-09-25T07:12:46;13.63;;;10.10;;
8399;SDS011;4237;47.030;15.396;2022-09-25T07:15:14;10.07;;;9.00;;
8399;SDS011;4237;47.030;15.396;2022-09-25T07:17:43;10.50;;;8.80;;
8399;SDS011;4237;47.030;15.396;2022-09-25T07:20:12;9.67;;;8.50;;
8399;SDS011;4237;47.030;15.396;2022-09-25T07:22:41;11.40;;;8.63;;
8399;SDS011;4237;47.030;15.396;2022-09-25T07:25:10;10.53;;;9.20;;
8399;SDS011;4237;47.030;15.396;2022-09-25T07:27:39;11.03;;;9.30;;
8399;SDS011;4237;47.030;15.396;2022-09-25T07:30:07;14.37;;;9.40;;
8399;SDS011;4237;47.030;15.396;2022-09-25T07:32:36;9.67;;;8.53;;
8399;SDS011;4237;47.030;15.396;2022-09-25T07:35:04;10.53;;;9.43;;
8399;SDS011;4237;47.030;15.396;2022-09-25T07:37:32;13.03;;;9.63;;
8399;SDS011;4237;47.030;15.396;2022-09-25T07:40:01;12.90;;;10.03;;
8399;SDS011;4237;47.030;15.396;2022-09-25T07:42:29;10.97;;;9.77;;
8399;SDS011;4237;47.030;15.396;2022-09-25T07:44:58;11.70;;;9.50;;
8399;SDS011;4237;47.030;15.396;2022-09-25T07:47:26;10.90;;;9.07;;
8399;SDS011;4237;47.030;15.396;2022-09-25T07:49:54;11.93;;;9.33;;
8399;SDS011;4237;47.030;15.396;2022-09-25T07:52:22;11.00;;;9.50;;
8399;SDS011;4237;47.030;15.396;2022-09-25T07:54:51;10.70;;;9.00;;
8399;SDS011;4237;47.030;15.396;2022-09-25T07:57:19;12.27;;;9.40;;
8399;SDS011;4237;47.030;15.396;2022-09-25T07:59:47;13.37;;;10.40;;
8399;SDS011;4237;47.030;15.396;2022-09-25T08:02:15;13.03;;;11.13;;
8399;SDS011;4237;47.030;15.396;2022-09-25T08:04:44;12.07;;;10.93;;
8399;SDS011;4237;47.030;15.396;2022-09-25T08:07:12;15.83;;;12.17;;
8399;SDS011;4237;47.030;15.396;2022-09-25T08:09:40;16.07;;;11.60;;
8399;SDS011;4237;47.030;15.396;2022-09-25T08:12:11;12.53;;;11.23;;
8399;SDS011;4237;47.030;15.396;2022-09-25T08:14:39;13.93;;;11.10;;
8399;SDS011;4237;47.030;15.396;2022-09-25T08:17:08;13.67;;;11.97;;
8399;SDS011;4237;47.030;15.396;2022-09-25T08:19:36;12.87;;;11.57;;
8399;SDS011;4237;47.030;15.396;2022-09-25T08:22:04;14.37;;;11.80;;
8399;SDS011;4237;47.030;15.396;2022-09-25T08:24:32;14.70;;;11.50;;
8399;SDS011;4237;47.030;15.396;2022-09-25T08:27:01;13.20;;;11.87;;
8399;SDS011;4237;47.030;15.396;2022-09-25T08:29:29;13.10;;;11.73;;
8399;SDS011;4237;47.030;15.396;2022-09-25T08:31:57;13.67;;;11.53;;
8399;SDS011;4237;47.030;15.396;2022-09-25T08:34:26;13.13;;;11.77;;
8399;SDS011;4237;47.030;15.396;2022-09-25T08:36:54;13.93;;;12.57;;
8399;SDS011;4237;47.030;15.396;2022-09-25T08:39:23;13.73;;;11.30;;
8399;SDS011;4237;47.030;15.396;2022-09-25T08:41:52;16.73;;;12.00;;
8399;SDS011;4237;47.030;15.396;2022-09-25T08:44:25;13.70;;;10.93;;
8399;SDS011;4237;47.030;15.396;2022-09-25T08:47:17;11.17;;;10.07;;
8399;SDS011;4237;47.030;15.396;2022-09-25T08:50:01;12.10;;;9.20;;
8399;SDS011;4237;47.030;15.396;2022-09-25T08:52:29;10.47;;;9.37;;
8399;SDS011;4237;47.030;15.396;2022-09-25T08:54:58;9.73;;;8.77;;
8399;SDS011;4237;47.030;15.396;2022-09-25T08:57:36;10.07;;;9.00;;
8399;SDS011;4237;47.030;15.396;2022-09-25T09:00:10;12.00;;;10.13;;
8399;SDS011;4237;47.030;15.396;2022-09-25T09:02:38;12.07;;;10.87;;
8399;SDS011;4237;47.030;15.396;2022-09-25T09:05:13;12.83;;;11.10;;
8399;SDS011;4237;47.030;15.396;2022-09-25T09:07:41;11.70;;;10.50;;
8399;SDS011;4237;47.030;15.396;2022-09-25T09:12:49;11.10;;;9.93;;
8399;SDS011;4237;47.030;15.396;2022-09-25T09:15:33;10.90;;;9.57;;
8399;SDS011;4237;47.030;15.396;2022-09-25T09:17:59;11.27;;;10.10;;
8399;SDS011;4237;47.030;15.396;2022-09-25T09:20:32;14.63;;;12.90;;
8399;SDS011;4237;47.030;15.396;2022-09-25T09:22:58;13.13;;;11.43;;
8399;SDS011;4237;47.030;15.396;2022-09-25T09:25:27;12.50;;;11.07;;
8399;SDS011;4237;47.030;15.396;2022-09-25T09:33:14;12.20;;;9.30;;
8399;SDS011;4237;47.030;15.396;2022-09-25T09:38:17;9.67;;;8.53;;
8399;SDS011;4237;47.030;15.396;2022-09-25T09:45:52;12.33;;;9.27;;
8399;SDS011;4237;47.030;15.396;2022-09-25T09:48:27;10.90;;;8.43;;
8399;SDS011;4237;47.030;15.396;2022-09-25T09:50:56;9.70;;;8.63;;
8399;SDS011;4237;47.030;15.396;2022-09-25T09:53:28;10.83;;;9.70;;
8399;SDS011;4237;47.030;15.396;2022-09-25T09:56:01;10.17;;;9.17;;
8399;SDS011;4237;47.030;15.396;2022-09-25T10:01:12;7.90;;;7.20;;
8399;SDS011;4237;47.030;15.396;2022-09-25T10:03:41;10.27;;;7.77;;
8399;SDS011;4237;47.030;15.396;2022-09-25T10:06:11;8.10;;;7.30;;
8399;SDS011;4237;47.030;15.396;2022-09-25T10:08:40;8.30;;;7.50;;
8399;SDS011;4237;47.030;15.396;2022-09-25T10:13:58;8.13;;;6.93;;
8399;SDS011;4237;47.030;15.396;2022-09-25T10:16:27;8.63;;;6.20;;
8399;SDS011;4237;47.030;15.396;2022-09-25T10:19:01;7.80;;;6.97;;
8399;SDS011;4237;47.030;15.396;2022-09-25T10:21:37;10.70;;;7.40;;
8399;SDS011;4237;47.030;15.396;2022-09-25T10:24:06;9.27;;;7.80;;
8399;SDS011;4237;47.030;15.396;2022-09-25T10:26:35;8.83;;;7.50;;
8399;SDS011;4237;47.030;15.396;2022-09-25T10:29:26;7.83;;;7.03;;
8399;SDS011;4237;47.030;15.396;2022-09-25T10:31:39;6.90;;;6.20;;
8399;SDS011;4237;47.030;15.396;2022-09-25T10:36:37;7.80;;;6.37;;
8399;SDS011;4237;47.030;15.396;2022-09-25T10:39:03;7.17;;;6.47;;
8399;SDS011;4237;47.030;15.396;2022-09-25T10:41:41;6.10;;;5.50;;
8399;SDS011;4237;47.030;15.396;2022-09-25T10:46:40;7.43;;;6.10;;
8399;SDS011;4237;47.030;15.396;2022-09-25T10:49:27;6.57;;;5.87;;
8399;SDS011;4237;47.030;15.396;2022-09-25T10:52:14;6.23;;;5.63;;
8399;SDS011;4237;47.030;15.396;2022-09-25T10:54:44;5.53;;;5.03;;
8399;SDS011;4237;47.030;15.396;2022-09-25T10:57:14;6.33;;;5.73;;
8399;SDS011;4237;47.030;15.396;2022-09-25T10:59:46;7.00;;;6.30;;
8399;SDS011;4237;47.030;15.396;2022-09-25T11:02:50;6.73;;;6.13;;
8399;SDS011;4237;47.030;15.396;2022-09-25T11:04:51;6.70;;;6.00;;
8399;SDS011;4237;47.030;15.396;2022-09-25T11:07:20;6.97;;;6.10;;
8399;SDS011;4237;47.030;15.396;2022-09-25T11:09:49;10.27;;;6.20;;
8399;SDS011;4237;47.030;15.396;2022-09-25T11:12:26;7.20;;;6.50;;
8399;SDS011;4237;47.030;15.396;2022-09-25T11:15:00;6.93;;;6.20;;
8399;SDS011;4237;47.030;15.396;2022-09-25T11:17:31;7.90;;;6.30;;
8399;SDS011;4237;47.030;15.396;2022-09-25T11:22:47;7.50;;;6.37;;
8399;SDS011;4237;47.030;15.396;2022-09-25T11:25:16;6.50;;;5.90;;
8399;SDS011;4237;47.030;15.396;2022-09-25T11:27:45;6.47;;;5.60;;
8399;SDS011;4237;47.030;15.396;2022-09-25T11:30:14;7.33;;;6.10;;
8399;SDS011;4237;47.030;15.396;2022-09-25T11:32:45;6.73;;;5.67;;
8399;SDS011;4237;47.030;15.396;2022-09-25T11:40:23;5.97;;;5.47;;
8399;SDS011;4237;47.030;15.396;2022-09-25T11:43:10;6.60;;;6.00;;
8399;SDS011;4237;47.030;15.396;2022-09-25T11:45:42;8.00;;;5.93;;
8399;SDS011;4237;47.030;15.396;2022-09-25T11:51:08;7.80;;;5.70;;
8399;SDS011;4237;47.030;15.396;2022-09-25T11:54:15;6.60;;;5.77;;
8399;SDS011;4237;47.030;15.396;2022-09-25T12:01:43;6.27;;;5.67;;
8399;SDS011;4237;47.030;15.396;2022-09-25T12:12:27;5.77;;;5.17;;
8399;SDS011;4237;47.030;15.396;2022-09-25T12:17:40;6.17;;;5.20;;
8399;SDS011;4237;47.030;15.396;2022-09-25T12:20:14;5.97;;;5.37;;
8399;SDS011;4237;47.030;15.396;2022-09-25T12:22:48;4.77;;;4.37;;
8399;SDS011;4237;47.030;15.396;2022-09-25T12:27:57;6.20;;;4.50;;
8399;SDS011;4237;47.030;15.396;2022-09-25T12:30:33;6.33;;;4.63;;
8399;SDS011;4237;47.030;15.396;2022-09-25T12:38:33;4.60;;;4.20;;
8399;SDS011;4237;47.030;15.396;2022-09-25T12:41:09;5.03;;;4.53;;
8399;SDS011;4237;47.030;15.396;2022-09-25T12:43:51;4.00;;;3.60;;
8399;SDS011;4237;47.030;15.396;2022-09-25T12:46:32;4.40;;;3.67;;
8399;SDS011;4237;47.030;15.396;2022-09-25T12:56:56;3.90;;;3.60;;
8399;SDS011;4237;47.030;15.396;2022-09-25T12:59:28;4.60;;;4.20;;
8399;SDS011;4237;47.030;15.396;2022-09-25T13:01:56;5.33;;;3.80;;
8399;SDS011;4237;47.030;15.396;2022-09-25T13:07:08;5.63;;;4.10;;
8399;SDS011;4237;47.030;15.396;2022-09-25T13:09:40;5.13;;;4.03;;
8399;SDS011;4237;47.030;15.396;2022-09-25T13:12:13;5.10;;;3.87;;
8399;SDS011;4237;47.030;15.396;2022-09-25T13:14:37;4.40;;;3.73;;
8399;SDS011;4237;47.030;15.396;2022-09-25T13:17:12;3.77;;;3.43;;
8399;SDS011;4237;47.030;15.396;2022-09-25T13:19:42;3.80;;;3.13;;
8399;SDS011;4237;47.030;15.396;2022-09-25T13:22:16;3.73;;;3.37;;
8399;SDS011;4237;47.030;15.396;2022-09-25T13:24:43;5.53;;;3.97;;
8399;SDS011;4237;47.030;15.396;2022-09-25T13:27:14;3.73;;;3.43;;
8399;SDS011;4237;47.030;15.396;2022-09-25T13:29:42;3.80;;;3.30;;
8399;SDS011;4237;47.030;15.396;2022-09-25T13:32:14;4.20;;;3.77;;
8399;SDS011;4237;47.030;15.396;2022-09-25T13:34:43;3.77;;;3.30;;
8399;SDS011;4237;47.030;15.396;2022-09-25T13:37:13;4.13;;;3.60;;
8399;SDS011;4237;47.030;15.396;2022-09-25T13:39:46;4.10;;;3.70;;
8399;SDS011;4237;47.030;15.396;2022-09-25T13:42:33;4.53;;;4.03;;
8399;SDS011;4237;47.030;15.396;2022-09-25T13:47:59;4.47;;;3.90;;
8399;SDS011;4237;47.030;15.396;2022-09-25T13:50:31;4.27;;;3.80;;
8399;SDS011;4237;47.030;15.396;2022-09-25T13:53:14;4.63;;;3.80;;
8399;SDS011;4237;47.030;15.396;2022-09-25T13:58:24;3.77;;;3.47;;
8399;SDS011;4237;47.030;15.396;2022-09-25T14:00:57;3.93;;;3.60;;
8399;SDS011;4237;47.030;15.396;2022-09-25T14:03:29;5.30;;;3.70;;
8399;SDS011;4237;47.030;15.396;2022-09-25T14:05:58;3.50;;;3.20;;
8399;SDS011;4237;47.030;15.396;2022-09-25T14:08:27;3.80;;;3.40;;
8399;SDS011;4237;47.030;15.396;2022-09-25T14:10:57;4.77;;;3.27;;
8399;SDS011;4237;47.030;15.396;2022-09-25T14:13:27;4.20;;;3.00;;
8399;SDS011;4237;47.030;15.396;2022-09-25T14:15:57;2.90;;;2.70;;
8399;SDS011;4237;47.030;15.396;2022-09-25T14:18:35;3.73;;;3.43;;
8399;SDS011;4237;47.030;15.396;2022-09-25T14:21:03;4.43;;;4.03;;
8399;SDS011;4237;47.030;15.396;2022-09-25T14:23:33;5.57;;;3.17;;
8399;SDS011;4237;47.030;15.396;2022-09-25T14:26:04;3.20;;;2.90;;
8399;SDS011;4237;47.030;15.396;2022-09-25T14:28:41;2.30;;;2.10;;
8399;SDS011;4237;47.030;15.396;2022-09-25T14:36:42;2.10;;;2.00;;
8399;SDS011;4237;47.030;15.396;2022-09-25T14:44:34;2.77;;;2.57;;
8399;SDS011;4237;47.030;15.396;2022-09-25T14:46:59;2.47;;;2.27;;
8399;SDS011;4237;47.030;15.396;2022-09-25T14:49:29;3.40;;;2.77;;
8399;SDS011;4237;47.030;15.396;2022-09-25T14:52:04;2.50;;;2.27;;
8399;SDS011;4237;47.030;15.396;2022-09-25T14:54:29;3.00;;;2.57;;
8399;SDS011;4237;47.030;15.396;2022-09-25T14:56:57;2.60;;;2.40;;
8399;SDS011;4237;47.030;15.396;2022-09-25T15:01:57;2.73;;;2.50;;
8399;SDS011;4237;47.030;15.396;2022-09-25T15:04:29;3.10;;;2.60;;
8399;SDS011;4237;47.030;15.396;2022-09-25T15:07:08;4.17;;;2.37;;
8399;SDS011;4237;47.030;15.396;2022-09-25T15:09:36;2.80;;;2.50;;
8399;SDS011;4237;47.030;15.396;2022-09-25T15:12:12;3.70;;;2.63;;
8399;SDS011;4237;47.030;15.396;2022-09-25T15:14:36;2.80;;;2.60;;
8399;SDS011;4237;47.030;15.396;2022-09-25T15:17:05;3.20;;;2.50;;
8399;SDS011;4237;47.030;15.396;2022-09-25T15:19:49;4.10;;;2.00;;
8399;SDS011;4237;47.030;15.396;2022-09-25T15:22:20;2.10;;;2.00;;
8399;SDS011;4237;47.030;15.396;2022-09-25T15:24:50;1.97;;;1.80;;
8399;SDS011;4237;47.030;15.396;2022-09-25T15:27:20;3.30;;;3.00;;
8399;SDS011;4237;47.030;15.396;2022-09-25T15:29:49;2.00;;;1.90;;
8399;SDS011;4237;47.030;15.396;2022-09-25T15:32:21;2.23;;;2.00;;
8399;SDS011;4237;47.030;15.396;2022-09-25T15:35:03;1.93;;;1.80;;
8399;SDS011;4237;47.030;15.396;2022-09-25T15:39:55;2.50;;;2.10;;
8399;SDS011;4237;47.030;15.396;2022-09-25T15:42:23;2.60;;;2.40;;
8399;SDS011;4237;47.030;15.396;2022-09-25T15:44:51;2.90;;;2.60;;
8399;SDS011;4237;47.030;15.396;2022-09-25T15:50:12;2.90;;;2.70;;
8399;SDS011;4237;47.030;15.396;2022-09-25T15:52:35;3.40;;;3.10;;
8399;SDS011;4237;47.030;15.396;2022-09-25T15:55:05;3.57;;;3.10;;
8399;SDS011;4237;47.030;15.396;2022-09-25T15:57:34;4.77;;;3.17;;
8399;SDS011;4237;47.030;15.396;2022-09-25T16:00:07;3.10;;;2.80;;
8399;SDS011;4237;47.030;15.396;2022-09-25T16:02:58;4.53;;;4.13;;
8399;SDS011;4237;47.030;15.396;2022-09-25T16:05:45;8.93;;;6.60;;
8399;SDS011;4237;47.030;15.396;2022-09-25T16:11:36;5.60;;;4.43;;
8399;SDS011;4237;47.030;15.396;2022-09-25T16:13:26;5.47;;;4.97;;
8399;SDS011;4237;47.030;15.396;2022-09-25T16:15:54;5.03;;;4.63;;
8399;SDS011;4237;47.030;15.396;2022-09-25T16:18:24;5.03;;;4.53;;
8399;SDS011;4237;47.030;15.396;2022-09-25T16:21:05;5.00;;;4.50;;
8399;SDS011;4237;47.030;15.396;2022-09-25T16:23:28;5.17;;;4.70;;
8399;SDS011;4237;47.030;15.396;2022-09-25T16:25:53;5.70;;;5.20;;
8399;SDS011;4237;47.030;15.396;2022-09-25T16:28:26;5.33;;;4.83;;
8399;SDS011;4237;47.030;15.396;2022-09-25T16:30:57;5.30;;;4.80;;
8399;SDS011;4237;47.030;15.396;2022-09-25T16:35:54;5.87;;;4.70;;
8399;SDS011;4237;47.030;15.396;2022-09-25T16:38:25;7.53;;;4.90;;
8399;SDS011;4237;47.030;15.396;2022-09-25T16:41:09;4.77;;;4.37;;
8399;SDS011;4237;47.030;15.396;2022-09-25T16:43:35;6.27;;;5.60;;
8399;SDS011;4237;47.030;15.396;2022-09-25T16:46:15;5.17;;;4.70;;
8399;SDS011;4237;47.030;15.396;2022-09-25T16:48:41;5.50;;;4.93;;
8399;SDS011;4237;47.030;15.396;2022-09-25T16:51:14;6.73;;;6.13;;
8399;SDS011;4237;47.030;15.396;2022-09-25T16:53:40;7.63;;;6.53;;
8399;SDS011;4237;47.030;15.396;2022-09-25T16:56:09;7.23;;;6.10;;
8399;SDS011;4237;47.030;15.396;2022-09-25T16:58:37;7.60;;;6.90;;
8399;SDS011;4237;47.030;15.396;2022-09-25T17:01:05;7.10;;;6.40;;
8399;SDS011;4237;47.030;15.396;2022-09-25T17:03:33;7.57;;;6.83;;
8399;SDS011;4237;47.030;15.396;2022-09-25T17:06:03;7.30;;;6.57;;
8399;SDS011;4237;47.030;15.396;2022-09-25T17:08:31;7.37;;;6.67;;
8399;SDS011;4237;47.030;15.396;2022-09-25T17:10:59;8.83;;;6.97;;
8399;SDS011;4237;47.030;15.396;2022-09-25T17:13:27;9.90;;;7.20;;
8399;SDS011;4237;47.030;15.396;2022-09-25T17:15:57;8.60;;;7.70;;
8399;SDS011;4237;47.030;15.396;2022-09-25T17:18:25;9.40;;;8.40;;
8399;SDS011;4237;47.030;15.396;2022-09-25T17:20:54;7.83;;;7.07;;